createdAt,value
2024-01-15T00:02:18.587Z,93066.28
2024-01-15T00:04:45.174Z,93063.75
2024-01-15T00:07:11.832Z,93068.44
2024-01-15T00:09:38.479Z,93063.88
2024-01-15T00:12:05.576Z,93061.34
2024-01-15T00:14:32.102Z,93057.34
2024-01-15T00:16:58.657Z,93058.97
2024-01-15T00:19:25.462Z,93054.88
2024-01-15T00:21:52.130Z,93052.13
2024-01-15T00:24:18.723Z,93052.88
2024-01-15T00:26:45.291Z,93050.63
2024-01-15T00:29:11.763Z,93053.50
2024-01-15T00:31:38.474Z,93051.78
2024-01-15T00:34:05.172Z,93072.47
2024-01-15T00:36:31.728Z,93061.06
2024-01-15T00:38:58.220Z,93064.13
2024-01-15T00:41:24.698Z,93071.50
2024-01-15T00:43:51.200Z,93058.03
2024-01-15T00:46:18.358Z,93059.34
2024-01-15T00:48:45.254Z,93057.34
2024-01-15T00:51:13.036Z,93051.78
2024-01-15T00:53:39.809Z,93047.47
2024-01-15T00:56:06.388Z,93044.34
2024-01-15T00:58:33.060Z,93036.50
2024-01-15T01:00:59.553Z,93033.63
2024-01-15T01:03:26.143Z,93038.50
2024-01-15T01:05:52.792Z,93031.88
2024-01-15T01:08:19.336Z,93027.56
2024-01-15T01:10:45.845Z,93036.19
2024-01-15T01:13:12.389Z,93038.19
2024-01-15T01:15:39.854Z,93034.88
2024-01-15T01:18:06.708Z,93033.31
2024-01-15T01:20:33.526Z,93035.13
2024-01-15T01:23:00.747Z,93033.56
2024-01-15T01:25:27.310Z,93043.50
2024-01-15T01:27:53.805Z,93037.44
2024-01-15T01:30:20.490Z,93034.63
2024-01-15T01:32:47.038Z,93039.50
2024-01-15T01:35:13.921Z,93033.41
2024-01-15T01:37:40.372Z,93034.16
2024-01-15T01:40:07.550Z,93034.47
2024-01-15T01:42:34.089Z,93041.66
2024-01-15T01:45:01.402Z,93041.97
2024-01-15T01:47:28.024Z,93024.13
2024-01-15T01:49:55.179Z,93023.66
2024-01-15T01:52:21.921Z,93030.53
2024-01-15T01:54:48.962Z,93027.97
2024-01-15T01:57:16.369Z,93017.81
2024-01-15T01:59:42.957Z,93012.16
2024-01-15T02:02:09.498Z,93021.97
2024-01-15T02:04:38.070Z,93036.28
2024-01-15T02:07:05.515Z,93042.91
2024-01-15T02:09:33.263Z,93039.66
2024-01-15T02:12:00.214Z,93039.50
2024-01-15T02:14:27.057Z,93042.09
2024-01-15T02:16:53.716Z,93047.44
2024-01-15T02:19:20.414Z,93042.88
2024-01-15T02:21:47.268Z,93039.59
2024-01-15T02:24:14.185Z,93050.88
2024-01-15T02:26:41.006Z,93034.03
2024-01-15T02:29:11.399Z,93036.66
2024-01-15T02:31:38.496Z,93036.16
2024-01-15T02:34:05.857Z,93035.66
2024-01-15T02:36:32.525Z,93036.00
2024-01-15T02:38:58.980Z,93036.31
2024-01-15T02:41:25.610Z,93039.91
2024-01-15T02:43:52.118Z,93021.00
2024-01-15T02:46:18.628Z,93030.69
2024-01-15T02:48:45.578Z,93032.78
2024-01-15T02:51:12.240Z,93033.34
2024-01-15T02:53:40.317Z,93032.56
2024-01-15T02:56:08.969Z,93038.44
2024-01-15T02:58:35.403Z,93037.41
2024-01-15T03:01:02.208Z,93035.41
2024-01-15T03:03:29.380Z,93034.91
2024-01-15T03:05:56.226Z,93034.22
2024-01-15T03:08:24.167Z,93038.06
2024-01-15T03:10:50.837Z,93036.56
2024-01-15T03:13:17.361Z,93045.75
2024-01-15T03:15:44.667Z,93028.06
2024-01-15T03:18:11.460Z,93044.50
2024-01-15T03:20:40.561Z,93039.66
2024-01-15T03:23:07.044Z,93042.72
2024-01-15T03:25:33.666Z,93042.72
2024-01-15T03:28:00.170Z,93029.38
2024-01-15T03:30:26.675Z,93035.06
2024-01-15T03:32:53.267Z,93036.63
2024-01-15T03:35:19.856Z,93034.81
2024-01-15T03:37:46.297Z,93031.03
2024-01-15T03:40:13.938Z,93032.06
2024-01-15T03:42:40.519Z,93030.53
2024-01-15T03:45:07.328Z,93037.50
2024-01-15T03:47:33.955Z,93032.91
2024-01-15T03:50:00.519Z,93020.44
2024-01-15T03:52:27.004Z,93020.44
2024-01-15T03:54:53.589Z,93027.84
2024-01-15T03:57:20.133Z,93031.41
2024-01-15T03:59:48.336Z,93021.19
2024-01-15T04:02:15.483Z,93027.84
2024-01-15T04:04:43.553Z,93026.06
2024-01-15T04:07:13.245Z,93022.56
2024-01-15T04:09:39.797Z,93016.97
2024-01-15T04:12:06.432Z,93019.56
2024-01-15T04:14:33.257Z,93014.00
2024-01-15T04:16:59.711Z,93007.84
2024-01-15T04:19:26.225Z,93013.00
2024-01-15T04:21:52.891Z,93007.38
2024-01-15T04:24:19.474Z,93012.75
2024-01-15T04:26:46.817Z,93022.00
2024-01-15T04:29:13.584Z,93009.75
2024-01-15T04:31:40.392Z,93009.00
2024-01-15T04:34:07.116Z,93007.50
2024-01-15T04:36:40.300Z,93018.75
2024-01-15T04:39:07.180Z,93013.16
2024-01-15T04:41:33.828Z,93012.94
2024-01-15T04:44:02.237Z,93007.84
2024-01-15T04:46:28.690Z,93012.72
2024-01-15T04:48:55.262Z,93005.56
2024-01-15T04:51:21.826Z,93002.00
2024-01-15T04:53:48.302Z,93001.00
2024-01-15T04:56:14.764Z,93007.13
2024-01-15T04:58:41.231Z,92999.50
2024-01-15T05:01:09.502Z,92992.41
2024-01-15T05:03:36.209Z,92986.03
2024-01-15T05:06:02.827Z,92978.06
2024-01-15T05:08:29.406Z,92981.69
2024-01-15T05:10:55.829Z,92970.97
2024-01-15T05:13:22.466Z,92975.31
2024-01-15T05:15:48.994Z,92974.81
2024-01-15T05:18:15.604Z,92974.31
2024-01-15T05:20:42.137Z,92968.97
2024-01-15T05:23:08.874Z,92975.34
2024-01-15T05:25:35.288Z,92979.19
2024-01-15T05:28:02.571Z,92983.03
2024-01-15T05:30:29.197Z,92983.81
2024-01-15T05:32:55.857Z,92972.31
2024-01-15T05:35:22.367Z,92965.94
2024-01-15T05:37:49.395Z,92973.34
2024-01-15T05:40:15.946Z,92968.00
2024-01-15T05:42:42.920Z,92971.06
2024-01-15T05:45:09.975Z,92968.03
2024-01-15T05:47:36.690Z,92970.56
2024-01-15T05:50:03.707Z,92966.50
2024-01-15T05:52:30.471Z,92962.41
2024-01-15T05:54:57.549Z,92960.13
2024-01-15T05:57:24.180Z,92961.41
2024-01-15T05:59:50.764Z,92949.63
2024-01-15T06:02:17.300Z,92958.31
2024-01-15T06:04:43.879Z,92950.09
2024-01-15T06:07:10.453Z,92966.00
2024-01-15T06:09:36.966Z,92971.88
2024-01-15T06:12:03.624Z,92972.66
2024-01-15T06:14:30.065Z,92964.47
2024-01-15T06:16:56.502Z,92971.09
2024-01-15T06:19:23.032Z,92983.38
2024-01-15T06:21:49.706Z,92977.53
2024-01-15T06:24:16.824Z,92974.19
2024-01-15T06:26:43.306Z,92978.03
2024-01-15T06:29:09.777Z,92976.25
2024-01-15T06:31:36.325Z,92966.56
2024-01-15T06:34:03.026Z,92969.63
2024-01-15T06:36:29.652Z,92969.09
2024-01-15T06:38:57.003Z,92976.50
2024-01-15T06:41:23.437Z,92963.72
2024-01-15T06:43:49.957Z,92957.63
2024-01-15T06:46:23.053Z,92958.66
2024-01-15T06:48:50.262Z,92957.13
2024-01-15T06:51:17.669Z,92958.88
2024-01-15T06:53:44.370Z,92954.78
2024-01-15T06:56:10.952Z,92960.44
2024-01-15T06:58:37.728Z,92957.91
2024-01-15T07:01:05.957Z,92957.13
2024-01-15T07:03:32.947Z,92944.06
2024-01-15T07:05:59.537Z,92949.69
2024-01-15T07:08:26.212Z,92948.41
2024-01-15T07:10:53.055Z,92955.56
2024-01-15T07:13:19.497Z,92940.69
2024-01-15T07:15:46.078Z,92968.09
2024-01-15T07:18:12.677Z,92974.44
2024-01-15T07:20:39.262Z,92978.81
2024-01-15T07:23:05.686Z,92974.72
2024-01-15T07:25:32.321Z,92971.38
2024-01-15T07:27:58.827Z,92975.72
2024-01-15T07:30:25.450Z,92967.06
2024-01-15T07:32:53.996Z,92970.09
2024-01-15T07:35:20.576Z,92972.44
2024-01-15T07:37:47.233Z,92975.78
2024-01-15T07:40:13.880Z,92969.63
2024-01-15T07:42:40.641Z,92969.13
2024-01-15T07:45:07.227Z,92963.00
2024-01-15T07:47:33.753Z,92957.34
2024-01-15T07:50:04.139Z,92958.13
2024-01-15T07:52:32.561Z,92970.19
2024-01-15T07:55:00.997Z,92958.94
2024-01-15T07:57:27.693Z,92968.41
2024-01-15T07:59:54.198Z,92964.81
2024-01-15T08:02:20.769Z,92967.13
2024-01-15T08:04:47.318Z,92962.78
2024-01-15T08:07:14.402Z,92959.19
2024-01-15T08:09:41.042Z,92952.81
2024-01-15T08:12:07.744Z,92961.28
2024-01-15T08:14:34.330Z,92946.22
2024-01-15T08:17:00.894Z,92957.44
2024-01-15T08:19:27.573Z,92954.41
2024-01-15T08:21:54.245Z,92965.41
2024-01-15T08:24:20.802Z,92963.13
2024-01-15T08:26:47.516Z,92961.06
2024-01-15T08:29:14.046Z,92965.69
2024-01-15T08:31:40.889Z,92961.34
2024-01-15T08:34:07.773Z,92959.28
2024-01-15T08:36:36.574Z,92955.97
2024-01-15T08:39:05.050Z,92945.22
2024-01-15T08:41:34.743Z,92954.44
2024-01-15T08:44:01.275Z,92955.72
2024-01-15T08:46:27.747Z,92948.84
2024-01-15T08:48:54.244Z,92949.09
2024-01-15T08:51:20.860Z,92951.91
2024-01-15T08:53:47.374Z,92953.94
2024-01-15T08:56:13.881Z,92955.00
2024-01-15T08:58:40.334Z,92956.00
2024-01-15T09:01:06.987Z,92960.88
2024-01-15T09:03:35.044Z,92970.84
2024-01-15T09:06:01.720Z,92968.31
2024-01-15T09:08:28.819Z,92972.13
2024-01-15T09:10:55.322Z,92967.78
2024-01-15T09:13:21.782Z,92973.44
2024-01-15T09:18:32.938Z,92968.06
2024-01-15T09:20:59.926Z,92966.81
2024-01-15T09:23:28.788Z,92966.81
2024-01-15T09:25:55.895Z,92962.69
2024-01-15T09:28:22.350Z,92959.63
2024-01-15T09:30:48.865Z,92963.19
2024-01-15T09:33:15.587Z,92957.31
2024-01-15T09:35:42.181Z,92953.97
2024-01-15T09:38:08.651Z,92951.41
2024-01-15T09:40:39.502Z,92955.25
2024-01-15T09:43:06.333Z,92944.00
2024-01-15T09:45:33.188Z,92951.94
2024-01-15T09:47:59.798Z,92940.41
2024-01-15T09:50:26.288Z,92947.31
2024-01-15T09:52:53.747Z,92939.88
2024-01-15T09:55:20.515Z,92938.59
2024-01-15T09:57:47.705Z,92938.59
2024-01-15T10:00:15.902Z,92926.81
2024-01-15T10:02:42.438Z,92927.31
2024-01-15T10:05:09.389Z,92932.97
2024-01-15T10:07:38.439Z,92914.50
2024-01-15T10:10:05.384Z,92922.47
2024-01-15T10:12:32.160Z,92902.72
2024-01-15T10:14:58.722Z,92907.34
2024-01-15T10:17:28.289Z,92903.22
2024-01-15T10:19:54.958Z,92900.94
2024-01-15T10:22:21.539Z,92892.47
2024-01-15T10:24:48.970Z,92899.91
2024-01-15T10:27:17.168Z,92869.97
2024-01-15T10:29:44.105Z,92893.78
2024-01-15T10:32:10.975Z,92881.72
2024-01-15T10:34:42.699Z,92897.84
2024-01-15T10:37:10.555Z,92889.94
2024-01-15T10:39:38.060Z,92869.97
2024-01-15T10:42:05.584Z,92884.28
2024-01-15T10:44:32.542Z,92884.03
2024-01-15T10:46:59.249Z,92890.94
2024-01-15T10:49:31.901Z,92870.97
2024-01-15T10:52:00.090Z,92877.63
2024-01-15T10:54:28.297Z,92873.78
2024-01-15T10:56:56.767Z,92868.91
2024-01-15T10:59:23.835Z,92867.09
2024-01-15T11:01:54.544Z,92871.19
2024-01-15T11:04:22.610Z,92864.81
2024-01-15T11:06:51.967Z,92869.16
2024-01-15T11:09:19.681Z,92872.75
2024-01-15T11:11:50.805Z,92866.59
2024-01-15T11:14:44.948Z,92880.94
2024-01-15T11:17:13.188Z,92874.78
2024-01-15T11:19:51.630Z,92876.06
2024-01-15T11:22:47.711Z,92873.75
2024-01-15T11:25:15.709Z,92867.38
2024-01-15T11:27:53.185Z,92874.03
2024-01-15T11:30:24.100Z,92877.34
2024-01-15T11:32:50.832Z,92869.94
2024-01-15T11:35:17.635Z,92857.13
2024-01-15T11:37:53.760Z,92859.69
2024-01-15T11:40:23.803Z,92850.44
2024-01-15T11:42:50.867Z,92864.31
2024-01-15T11:45:20.409Z,92866.88
2024-01-15T11:48:15.856Z,92857.91
2024-01-15T11:50:47.097Z,92846.91
2024-01-15T11:53:37.522Z,92867.38
2024-01-15T11:56:13.207Z,92856.66
2024-01-15T11:58:39.666Z,92856.63
2024-01-15T12:01:06.295Z,92860.25
2024-01-15T12:03:34.896Z,92854.38
2024-01-15T12:06:01.742Z,92874.63
2024-01-15T12:08:28.470Z,92857.72
2024-01-15T12:10:55.143Z,92868.50
2024-01-15T12:13:22.326Z,92856.22
2024-01-15T12:15:49.368Z,92859.56
2024-01-15T12:18:18.269Z,92859.81
2024-01-15T12:20:47.920Z,92848.81
2024-01-15T12:23:14.862Z,92850.09
2024-01-15T12:25:41.385Z,92842.16
2024-01-15T12:28:07.880Z,92833.69
2024-01-15T12:30:37.026Z,92831.91
2024-01-15T12:33:07.698Z,92828.06
2024-01-15T12:35:35.146Z,92835.25
2024-01-15T12:38:04.154Z,92843.19
2024-01-15T12:40:32.890Z,92830.41
2024-01-15T12:42:59.498Z,92837.78
2024-01-15T12:45:26.438Z,92832.69
2024-01-15T12:47:53.733Z,92833.19
2024-01-15T12:50:21.135Z,92830.63
2024-01-15T12:52:48.626Z,92830.91
2024-01-15T12:55:16.215Z,92831.66
2024-01-15T12:57:43.298Z,92845.47
2024-01-15T13:00:14.375Z,92817.09
2024-01-15T13:02:42.698Z,92848.56
2024-01-15T13:05:14.334Z,92819.91
2024-01-15T13:07:41.976Z,92815.03
2024-01-15T13:10:10.096Z,92822.47
2024-01-15T13:12:36.813Z,92815.53
2024-01-15T13:15:04.763Z,92812.72
2024-01-15T13:17:31.583Z,92817.31
2024-01-15T13:19:58.508Z,92804.25
2024-01-15T13:22:30.718Z,92851.09
2024-01-15T13:24:57.317Z,92810.44
2024-01-15T13:27:24.218Z,92821.41
2024-01-15T13:29:50.853Z,92815.78
2024-01-15T13:32:26.980Z,92812.97
2024-01-15T13:34:53.659Z,92825.00
2024-01-15T13:37:20.300Z,92815.28
2024-01-15T13:39:46.808Z,92818.09
2024-01-15T13:42:13.437Z,92829.63
2024-01-15T13:44:39.889Z,92827.84
2024-01-15T13:47:06.542Z,92831.16
2024-01-15T13:49:35.126Z,92832.94
2024-01-15T13:52:01.663Z,92841.13
2024-01-15T13:54:41.000Z,92842.91
2024-01-15T13:57:12.522Z,92859.81
2024-01-15T13:59:39.319Z,92847.28
2024-01-15T14:02:06.242Z,92839.34
2024-01-15T14:04:32.682Z,92837.56
2024-01-15T14:06:59.148Z,92847.28
2024-01-15T14:09:26.468Z,92861.34
2024-01-15T14:11:53.073Z,92855.97
2024-01-15T14:14:19.598Z,92859.28
2024-01-15T14:16:46.035Z,92854.16
2024-01-15T14:19:12.714Z,92876.41
2024-01-15T14:21:40.079Z,92869.53
2024-01-15T14:24:07.536Z,92878.25
2024-01-15T14:26:35.161Z,92876.41
2024-01-15T14:29:01.676Z,92872.34
2024-01-15T14:31:29.529Z,92885.38
2024-01-15T14:34:00.551Z,92879.25
2024-01-15T14:36:27.057Z,92887.94
2024-01-15T14:38:53.612Z,92891.53
2024-01-15T14:41:20.145Z,92900.72
2024-01-15T14:43:46.837Z,92890.50
2024-01-15T14:46:13.493Z,92904.06
2024-01-15T14:48:40.097Z,92930.66
2024-01-15T14:51:06.985Z,92921.16
2024-01-15T14:53:33.460Z,92920.13
2024-01-15T14:56:00.005Z,92919.09
2024-01-15T14:58:26.524Z,92926.25
2024-01-15T15:00:53.207Z,92927.25
2024-01-15T15:03:20.036Z,92914.97
2024-01-15T15:05:46.681Z,92919.84
2024-01-15T15:08:13.832Z,92925.72
2024-01-15T15:10:43.113Z,92924.69
2024-01-15T15:13:11.192Z,92931.34
2024-01-15T15:15:38.001Z,92936.19
2024-01-15T15:18:04.741Z,92941.03
2024-01-15T15:20:31.482Z,92944.84
2024-01-15T15:22:58.102Z,92943.56
2024-01-15T15:25:24.688Z,92949.66
2024-01-15T15:27:51.224Z,92952.69
2024-01-15T15:30:17.910Z,92958.31
2024-01-15T15:32:44.477Z,92965.97
2024-01-15T15:35:11.484Z,92965.94
2024-01-15T15:37:38.241Z,92976.19
2024-01-15T15:40:09.595Z,92976.66
2024-01-15T15:42:36.765Z,92983.31
2024-01-15T15:45:04.712Z,92987.44
2024-01-15T15:47:31.548Z,92992.50
2024-01-15T15:49:58.388Z,92997.84
2024-01-15T15:52:25.246Z,92993.53
2024-01-15T15:54:51.986Z,92992.22
2024-01-15T15:57:18.547Z,92992.22
2024-01-15T15:59:45.455Z,93004.22
2024-01-15T16:02:12.002Z,93012.13
2024-01-15T16:04:38.656Z,93010.88
2024-01-15T16:07:08.967Z,92999.34
2024-01-15T16:09:35.794Z,93000.63
2024-01-15T16:12:02.368Z,93016.97
2024-01-15T16:14:28.876Z,93033.81
2024-01-15T16:23:13.622Z,93038.16
2024-01-15T16:23:26.838Z,93034.31
2024-01-15T16:23:42.201Z,93044.28
2024-01-15T16:25:19.112Z,93056.50
2024-01-15T16:27:46.182Z,93060.59
2024-01-15T16:30:21.137Z,93056.28
2024-01-15T16:32:56.342Z,93058.31
2024-01-15T16:35:23.170Z,93070.81
2024-01-15T16:37:49.805Z,93093.59
2024-01-15T16:40:16.511Z,93071.34
2024-01-15T16:42:43.071Z,93096.06
2024-01-15T16:45:10.186Z,93092.72
2024-01-15T16:47:36.729Z,93101.59
2024-01-15T16:50:05.002Z,93098.47
2024-01-15T16:52:31.822Z,93103.00
2024-01-15T16:54:58.324Z,93112.13
2024-01-15T16:57:24.824Z,93084.19
2024-01-15T16:59:51.313Z,93077.75
2024-01-15T17:02:18.144Z,93089.16
2024-01-15T17:04:44.764Z,93085.88
2024-01-15T17:07:11.493Z,93092.94
2024-01-15T17:09:37.967Z,93111.63
2024-01-15T17:12:05.308Z,93087.41
2024-01-15T17:14:31.959Z,93100.94
2024-01-15T17:17:01.018Z,93099.69
2024-01-15T17:19:28.678Z,93103.53
2024-01-15T17:21:55.384Z,93111.19
2024-01-15T17:24:22.306Z,93114.56
2024-01-15T17:26:49.996Z,93132.72
2024-01-15T17:29:17.121Z,93121.22
2024-01-15T17:31:43.618Z,93138.59
2024-01-15T17:34:11.198Z,93148.81
2024-01-15T17:36:37.923Z,93147.25
2024-01-15T17:39:06.547Z,93149.81
2024-01-15T17:41:34.048Z,93136.75
2024-01-15T17:44:02.073Z,93157.66
2024-01-15T17:46:30.122Z,93155.34
2024-01-15T17:49:03.687Z,93150.97
2024-01-15T17:51:34.288Z,93164.97
2024-01-15T17:54:01.464Z,93170.06
2024-01-15T17:56:28.511Z,93167.28
2024-01-15T17:58:55.825Z,93157.78
2024-01-15T18:01:23.054Z,93159.31
2024-01-15T18:03:49.618Z,93170.28
2024-01-15T18:06:17.060Z,93165.91
2024-01-15T18:08:43.564Z,93181.22
2024-01-15T18:11:19.257Z,93178.97
2024-01-15T18:13:46.714Z,93181.75
2024-01-15T18:16:13.638Z,93181.81
2024-01-15T18:18:40.293Z,93188.00
2024-01-15T18:21:06.793Z,93179.31
2024-01-15T18:23:34.683Z,93181.63
2024-01-15T18:26:01.389Z,93189.50
2024-01-15T18:28:29.961Z,93190.06
2024-01-15T18:30:56.417Z,93200.56
2024-01-15T18:33:24.336Z,93207.47
2024-01-15T18:35:51.287Z,93202.09
2024-01-15T18:38:18.128Z,93204.66
2024-01-15T18:40:44.724Z,93196.22
2024-01-15T18:43:11.305Z,93198.00
2024-01-15T18:45:37.813Z,93209.22
2024-01-15T18:48:04.630Z,93207.94
2024-01-15T18:50:31.215Z,93217.59
2024-01-15T18:52:57.833Z,93216.28
2024-01-15T18:55:24.694Z,93215.53
2024-01-15T18:57:52.002Z,93226.22
2024-01-15T19:00:20.118Z,93231.31
2024-01-15T19:02:46.677Z,93237.41
2024-01-15T19:05:13.522Z,93247.63
2024-01-15T19:07:40.143Z,93236.34
2024-01-15T19:10:08.234Z,93254.97
2024-01-15T19:12:34.773Z,93264.53
2024-01-15T19:15:01.335Z,93262.81
2024-01-15T19:17:27.917Z,93259.56
2024-01-15T19:19:54.469Z,93250.66
2024-01-15T19:22:21.094Z,93260.84
2024-01-15T19:24:47.804Z,93252.44
2024-01-15T19:27:14.615Z,93259.88
2024-01-15T19:29:41.264Z,93258.00
2024-01-15T19:32:07.920Z,93269.72
2024-01-15T19:34:34.529Z,93277.63
2024-01-15T19:37:01.087Z,93277.06
2024-01-15T19:39:29.371Z,93284.50
2024-01-15T19:41:56.754Z,93283.88
2024-01-15T19:44:23.438Z,93285.91
2024-01-15T19:46:49.890Z,93285.59
2024-01-15T19:49:16.984Z,93278.41
2024-01-15T19:51:44.491Z,93274.53
2024-01-15T19:54:11.560Z,93287.28
2024-01-15T19:56:39.104Z,93304.16
2024-01-15T19:59:06.752Z,93291.94
2024-01-15T20:01:33.612Z,93295.72
2024-01-15T20:04:00.135Z,93296.03
2024-01-15T20:06:26.768Z,93310.88
2024-01-15T20:08:55.366Z,93306.31
2024-01-15T20:11:21.975Z,93310.63
2024-01-15T20:13:49.502Z,93318.59
2024-01-15T20:16:16.831Z,93315.91
2024-01-15T20:18:43.735Z,93324.84
2024-01-15T20:21:11.165Z,93333.81
2024-01-15T20:23:46.537Z,93326.16
2024-01-15T20:26:21.483Z,93334.34
2024-01-15T20:28:48.348Z,93330.09
2024-01-15T20:31:14.984Z,93334.41
2024-01-15T20:33:41.788Z,93342.91
2024-01-15T20:36:13.364Z,93341.91
2024-01-15T20:38:40.710Z,93347.09
2024-01-15T20:41:07.736Z,93338.19
2024-01-15T20:43:35.104Z,93345.06
2024-01-15T20:46:02.564Z,93350.16
2024-01-15T20:48:29.474Z,93347.91
2024-01-15T20:50:56.030Z,93349.75
2024-01-15T20:53:23.277Z,93348.75
2024-01-15T20:55:49.771Z,93346.19
2024-01-15T20:58:24.250Z,93338.22
2024-01-15T21:00:51.099Z,93355.16
2024-01-15T21:03:18.764Z,93350.28
2024-01-15T21:05:45.529Z,93349.81
2024-01-15T21:08:12.132Z,93362.59
2024-01-15T21:10:38.663Z,93352.16
2024-01-15T21:13:05.358Z,93358.50
2024-01-15T21:15:31.870Z,93349.06
2024-01-15T21:17:58.476Z,93363.13
2024-01-15T21:20:25.056Z,93355.94
2024-01-15T21:22:51.556Z,93365.13
2024-01-15T21:25:18.080Z,93360.50
2024-01-15T21:27:47.110Z,93369.97
2024-01-15T21:30:17.528Z,93370.72
2024-01-15T21:32:44.532Z,93368.41
2024-01-15T21:35:13.171Z,93360.81
2024-01-15T21:37:44.231Z,93373.03
2024-01-15T21:40:11.453Z,93373.03
2024-01-15T21:42:38.717Z,93379.16
2024-01-15T21:45:09.595Z,93388.38
2024-01-15T21:47:38.130Z,93379.94
2024-01-15T21:50:10.012Z,93373.34
2024-01-15T21:52:36.621Z,93388.38
2024-01-15T21:55:03.450Z,93383.56
2024-01-15T21:57:30.011Z,93362.94
2024-01-15T21:59:56.563Z,93394.53
2024-01-15T22:02:23.616Z,93390.97
2024-01-15T22:04:50.104Z,93390.91
2024-01-15T22:07:17.130Z,93400.41
2024-01-15T22:09:43.577Z,93403.75
2024-01-15T22:12:10.167Z,93418.84
2024-01-15T22:14:36.873Z,93413.97
2024-01-15T22:17:03.479Z,93418.06
2024-01-15T22:19:30.076Z,93427.50
2024-01-15T22:21:56.549Z,93422.94
2024-01-15T22:24:23.053Z,93438.78
2024-01-15T22:26:49.960Z,93443.69
2024-01-15T22:29:16.586Z,93434.47
2024-01-15T22:31:43.118Z,93446.69
2024-01-15T22:34:10.097Z,93450.50
2024-01-15T22:36:36.633Z,93446.38
2024-01-15T22:39:03.180Z,93441.28
2024-01-15T22:41:30.838Z,93447.63
2024-01-15T22:43:57.382Z,93446.09
2024-01-15T22:46:24.079Z,93454.28
2024-01-15T22:48:50.723Z,93456.06
2024-01-15T22:51:17.243Z,93460.19
2024-01-15T22:53:43.908Z,93461.19
2024-01-15T22:56:10.458Z,93468.84
2024-01-15T22:58:36.961Z,93457.31
2024-01-15T23:01:03.977Z,93501.03
2024-01-15T23:03:30.949Z,93469.31
2024-01-15T23:05:57.690Z,93468.47
2024-01-15T23:08:24.309Z,93473.03
2024-01-15T23:10:50.893Z,93470.22
2024-01-15T23:13:17.832Z,93468.13
2024-01-15T23:15:44.423Z,93459.94
2024-01-15T23:18:12.458Z,93467.94
2024-01-15T23:20:39.283Z,93448.66
2024-01-15T23:23:05.967Z,93467.16
2024-01-15T23:25:32.621Z,93477.38
2024-01-15T23:27:59.169Z,93469.16
2024-01-15T23:30:25.671Z,93478.59
2024-01-15T23:32:53.133Z,93474.75
2024-01-15T23:35:19.846Z,93476.81
2024-01-15T23:37:46.371Z,93473.97
2024-01-15T23:40:13.546Z,93479.31
2024-01-15T23:42:40.748Z,93476.19
2024-01-15T23:45:07.846Z,93479.84
2024-01-15T23:47:34.578Z,93488.75
2024-01-15T23:50:01.435Z,93498.72
2024-01-15T23:52:28.117Z,93488.50
2024-01-15T23:54:54.737Z,93493.38
2024-01-15T23:57:21.257Z,93492.59
2024-01-15T23:59:47.854Z,93489.28
